sensor_id;sensor_type;location;lat;lon;timestamp;P1;durP1;ratioP1;P2;durP2;ratioP2
54121;SDS011;40029;58.708;50.190;2022-12-18T06:37:43;19.95;;;6.85;;
54121;SDS011;40029;58.708;50.190;2022-12-18T06:40:14;14.25;;;6.05;;
54121;SDS011;40029;58.708;50.190;2022-12-18T06:42:45;17.25;;;9.38;;
54121;SDS011;40029;58.708;50.190;2022-12-18T06:45:16;23.42;;;7.18;;
54121;SDS011;40029;58.708;50.190;2022-12-18T06:47:47;16.02;;;6.50;;
54121;SDS011;40029;58.708;50.190;2022-12-18T06:50:18;18.15;;;6.07;;
54121;SDS011;40029;58.708;50.190;2022-12-18T06:52:49;13.10;;;6.65;;
54121;SDS011;40029;58.708;50.190;2022-12-18T06:55:21;17.13;;;6.88;;
54121;SDS011;40029;58.708;50.190;2022-12-18T06:57:52;25.50;;;6.93;;
54121;SDS011;40029;58.708;50.190;2022-12-18T07:00:23;12.82;;;6.03;;
54121;SDS011;40029;58.708;50.190;2022-12-18T07:02:54;15.10;;;5.95;;
54121;SDS011;40029;58.708;50.190;2022-12-18T07:05:25;15.70;;;6.57;;
54121;SDS011;40029;58.708;50.190;2022-12-18T07:07:56;13.23;;;5.10;;
54121;SDS011;40029;58.708;50.190;2022-12-18T07:10:27;17.90;;;8.73;;
54121;SDS011;40029;58.708;50.190;2022-12-18T07:12:58;15.95;;;6.22;;
54121;SDS011;40029;58.708;50.190;2022-12-18T07:15:29;26.52;;;10.45;;
54121;SDS011;40029;58.708;50.190;2022-12-18T07:18:00;24.80;;;7.90;;
54121;SDS011;40029;58.708;50.190;2022-12-18T07:20:31;16.75;;;9.20;;
54121;SDS011;40029;58.708;50.190;2022-12-18T07:23:05;15.07;;;7.05;;
54121;SDS011;40029;58.708;50.190;2022-12-18T07:25:36;25.50;;;9.02;;
54121;SDS011;40029;58.708;50.190;2022-12-18T07:28:07;13.15;;;6.00;;
54121;SDS011;40029;58.708;50.190;2022-12-18T07:30:38;15.02;;;5.63;;
54121;SDS011;40029;58.708;50.190;2022-12-18T07:33:09;22.17;;;8.23;;
54121;SDS011;40029;58.708;50.190;2022-12-18T07:35:40;14.98;;;6.15;;
54121;SDS011;40029;58.708;50.190;2022-12-18T07:38:11;11.57;;;6.22;;
54121;SDS011;40029;58.708;50.190;2022-12-18T07:40:42;12.82;;;5.82;;
54121;SDS011;40029;58.708;50.190;2022-12-18T07:46:21;17.20;;;6.18;;
54121;SDS011;40029;58.708;50.190;2022-12-18T07:48:52;21.10;;;7.25;;
54121;SDS011;40029;58.708;50.190;2022-12-18T07:51:24;13.90;;;6.22;;
54121;SDS011;40029;58.708;50.190;2022-12-18T07:53:56;15.85;;;5.57;;
54121;SDS011;40029;58.708;50.190;2022-12-18T07:56:27;17.67;;;6.78;;
54121;SDS011;40029;58.708;50.190;2022-12-18T07:58:58;20.92;;;8.20;;
54121;SDS011;40029;58.708;50.190;2022-12-18T08:01:35;16.10;;;7.20;;
54121;SDS011;40029;58.708;50.190;2022-12-18T08:04:06;33.22;;;13.23;;
54121;SDS011;40029;58.708;50.190;2022-12-18T08:06:37;14.90;;;7.28;;
54121;SDS011;40029;58.708;50.190;2022-12-18T08:09:09;21.88;;;7.30;;
54121;SDS011;40029;58.708;50.190;2022-12-18T08:11:40;24.15;;;10.25;;
54121;SDS011;40029;58.708;50.190;2022-12-18T08:14:11;25.95;;;11.55;;
54121;SDS011;40029;58.708;50.190;2022-12-18T08:16:42;18.25;;;8.85;;
54121;SDS011;40029;58.708;50.190;2022-12-18T08:19:13;19.45;;;9.15;;
54121;SDS011;40029;58.708;50.190;2022-12-18T08:21:44;46.67;;;19.15;;
54121;SDS011;40029;58.708;50.190;2022-12-18T08:24:15;22.65;;;10.70;;
54121;SDS011;40029;58.708;50.190;2022-12-18T08:26:46;13.85;;;7.90;;
54121;SDS011;40029;58.708;50.190;2022-12-18T08:29:17;14.45;;;5.93;;
54121;SDS011;40029;58.708;50.190;2022-12-18T08:31:48;14.13;;;8.07;;
54121;SDS011;40029;58.708;50.190;2022-12-18T08:34:19;13.40;;;6.80;;
54121;SDS011;40029;58.708;50.190;2022-12-18T08:36:50;14.40;;;5.63;;
54121;SDS011;40029;58.708;50.190;2022-12-18T08:39:21;11.52;;;5.25;;
54121;SDS011;40029;58.708;50.190;2022-12-18T08:41:52;9.82;;;5.28;;
54121;SDS011;40029;58.708;50.190;2022-12-18T08:44:41;10.32;;;5.25;;
54121;SDS011;40029;58.708;50.190;2022-12-18T08:47:12;11.73;;;5.60;;
54121;SDS011;40029;58.708;50.190;2022-12-18T08:49:43;10.63;;;5.25;;
54121;SDS011;40029;58.708;50.190;2022-12-18T08:52:14;11.68;;;5.10;;
54121;SDS011;40029;58.708;50.190;2022-12-18T08:54:45;13.23;;;5.90;;
54121;SDS011;40029;58.708;50.190;2022-12-18T08:57:16;12.77;;;5.68;;
54121;SDS011;40029;58.708;50.190;2022-12-18T08:59:47;11.48;;;5.40;;
54121;SDS011;40029;58.708;50.190;2022-12-18T09:02:18;11.70;;;5.22;;
54121;SDS011;40029;58.708;50.190;2022-12-18T09:04:49;15.65;;;7.78;;
54121;SDS011;40029;58.708;50.190;2022-12-18T09:07:20;11.25;;;6.05;;
54121;SDS011;40029;58.708;50.190;2022-12-18T09:09:51;12.77;;;5.50;;
54121;SDS011;40029;58.708;50.190;2022-12-18T09:12:22;21.42;;;7.63;;
54121;SDS011;40029;58.708;50.190;2022-12-18T09:14:53;11.80;;;5.38;;
54121;SDS011;40029;58.708;50.190;2022-12-18T09:17:24;13.18;;;6.45;;
54121;SDS011;40029;58.708;50.190;2022-12-18T09:19:55;11.95;;;5.43;;
54121;SDS011;40029;58.708;50.190;2022-12-18T09:22:26;8.38;;;4.60;;
54121;SDS011;40029;58.708;50.190;2022-12-18T09:24:57;17.25;;;7.07;;
54121;SDS011;40029;58.708;50.190;2022-12-18T09:27:28;9.02;;;4.68;;
54121;SDS011;40029;58.708;50.190;2022-12-18T09:29:59;9.68;;;5.28;;
54121;SDS011;40029;58.708;50.190;2022-12-18T09:32:30;13.60;;;5.57;;
54121;SDS011;40029;58.708;50.190;2022-12-18T09:35:01;11.63;;;5.63;;
54121;SDS011;40029;58.708;50.190;2022-12-18T09:37:33;10.98;;;4.93;;
54121;SDS011;40029;58.708;50.190;2022-12-18T09:40:05;10.70;;;5.40;;
54121;SDS011;40029;58.708;50.190;2022-12-18T09:42:36;11.07;;;4.72;;
54121;SDS011;40029;58.708;50.190;2022-12-18T09:45:07;11.75;;;5.00;;
54121;SDS011;40029;58.708;50.190;2022-12-18T09:47:45;11.63;;;5.55;;
54121;SDS011;40029;58.708;50.190;2022-12-18T09:50:24;12.48;;;5.50;;
54121;SDS011;40029;58.708;50.190;2022-12-18T09:53:07;12.18;;;5.13;;
54121;SDS011;40029;58.708;50.190;2022-12-18T09:55:46;12.07;;;4.90;;
54121;SDS011;40029;58.708;50.190;2022-12-18T09:58:20;10.02;;;4.78;;
54121;SDS011;40029;58.708;50.190;2022-12-18T10:01:07;9.73;;;5.33;;
54121;SDS011;40029;58.708;50.190;2022-12-18T10:03:42;14.73;;;6.65;;
54121;SDS011;40029;58.708;50.190;2022-12-18T10:06:14;11.88;;;6.35;;
54121;SDS011;40029;58.708;50.190;2022-12-18T10:09:01;14.35;;;6.43;;
54121;SDS011;40029;58.708;50.190;2022-12-18T10:11:59;19.10;;;7.20;;
54121;SDS011;40029;58.708;50.190;2022-12-18T10:14:40;16.90;;;7.15;;
54121;SDS011;40029;58.708;50.190;2022-12-18T10:17:21;15.70;;;6.20;;
54121;SDS011;40029;58.708;50.190;2022-12-18T10:22:53;13.35;;;6.75;;
54121;SDS011;40029;58.708;50.190;2022-12-18T10:28:39;11.00;;;5.25;;
54121;SDS011;40029;58.708;50.190;2022-12-18T10:31:15;11.50;;;5.22;;
54121;SDS011;40029;58.708;50.190;2022-12-18T10:33:48;11.70;;;5.28;;
54121;SDS011;40029;58.708;50.190;2022-12-18T10:36:20;13.45;;;5.75;;
54121;SDS011;40029;58.708;50.190;2022-12-18T10:38:51;10.50;;;5.55;;
54121;SDS011;40029;58.708;50.190;2022-12-18T10:41:26;12.40;;;6.18;;
54121;SDS011;40029;58.708;50.190;2022-12-18T10:44:31;13.38;;;6.03;;
54121;SDS011;40029;58.708;50.190;2022-12-18T10:47:02;19.15;;;8.40;;
54121;SDS011;40029;58.708;50.190;2022-12-18T10:49:36;16.17;;;5.28;;
54121;SDS011;40029;58.708;50.190;2022-12-18T10:52:17;17.15;;;6.18;;
54121;SDS011;40029;58.708;50.190;2022-12-18T10:54:51;15.55;;;5.93;;
54121;SDS011;40029;58.708;50.190;2022-12-18T10:57:39;17.33;;;6.20;;
54121;SDS011;40029;58.708;50.190;2022-12-18T11:00:28;11.57;;;5.72;;
54121;SDS011;40029;58.708;50.190;2022-12-18T11:03:01;13.25;;;5.88;;
54121;SDS011;40029;58.708;50.190;2022-12-18T11:05:32;10.82;;;5.53;;
54121;SDS011;40029;58.708;50.190;2022-12-18T11:08:04;12.57;;;5.22;;
54121;SDS011;40029;58.708;50.190;2022-12-18T11:10:37;15.38;;;5.15;;
54121;SDS011;40029;58.708;50.190;2022-12-18T11:13:18;10.98;;;4.93;;
54121;SDS011;40029;58.708;50.190;2022-12-18T11:15:51;10.90;;;5.40;;
54121;SDS011;40029;58.708;50.190;2022-12-18T11:18:27;16.10;;;5.97;;
54121;SDS011;40029;58.708;50.190;2022-12-18T11:21:05;14.40;;;6.50;;
54121;SDS011;40029;58.708;50.190;2022-12-18T11:23:44;19.77;;;7.90;;
54121;SDS011;40029;58.708;50.190;2022-12-18T11:26:20;18.10;;;7.72;;
54121;SDS011;40029;58.708;50.190;2022-12-18T11:28:52;15.50;;;6.80;;
54121;SDS011;40029;58.708;50.190;2022-12-18T11:31:39;13.48;;;5.88;;
54121;SDS011;40029;58.708;50.190;2022-12-18T11:36:57;14.85;;;6.68;;
54121;SDS011;40029;58.708;50.190;2022-12-18T11:39:34;15.57;;;5.80;;
54121;SDS011;40029;58.708;50.190;2022-12-18T11:42:17;18.00;;;7.35;;
54121;SDS011;40029;58.708;50.190;2022-12-18T11:45:27;13.82;;;5.90;;
54121;SDS011;40029;58.708;50.190;2022-12-18T11:50:52;18.73;;;7.38;;
54121;SDS011;40029;58.708;50.190;2022-12-18T11:53:26;15.85;;;6.72;;
54121;SDS011;40029;58.708;50.190;2022-12-18T11:59:05;27.60;;;10.05;;
54121;SDS011;40029;58.708;50.190;2022-12-18T12:13:46;22.83;;;7.22;;
54121;SDS011;40029;58.708;50.190;2022-12-18T12:19:44;19.75;;;6.65;;
54121;SDS011;40029;58.708;50.190;2022-12-18T12:38:42;18.33;;;6.75;;
54121;SDS011;40029;58.708;50.190;2022-12-18T12:41:22;26.48;;;8.23;;
54121;SDS011;40029;58.708;50.190;2022-12-18T12:44:23;16.77;;;7.55;;
54121;SDS011;40029;58.708;50.190;2022-12-18T12:47:05;22.00;;;8.05;;
54121;SDS011;40029;58.708;50.190;2022-12-18T12:50:11;23.90;;;7.00;;
54121;SDS011;40029;58.708;50.190;2022-12-18T12:52:50;21.30;;;7.93;;
54121;SDS011;40029;58.708;50.190;2022-12-18T12:55:24;19.85;;;7.25;;
54121;SDS011;40029;58.708;50.190;2022-12-18T13:48:37;19.65;;;7.10;;
54121;SDS011;40029;58.708;50.190;2022-12-18T13:51:09;20.83;;;6.88;;
54121;SDS011;40029;58.708;50.190;2022-12-18T13:53:46;20.65;;;7.03;;
54121;SDS011;40029;58.708;50.190;2022-12-18T13:56:22;17.33;;;7.05;;
54121;SDS011;40029;58.708;50.190;2022-12-18T13:59:12;21.73;;;7.40;;
54121;SDS011;40029;58.708;50.190;2022-12-18T14:01:47;20.90;;;8.60;;
54121;SDS011;40029;58.708;50.190;2022-12-18T14:04:23;24.85;;;8.70;;
54121;SDS011;40029;58.708;50.190;2022-12-18T14:07:01;16.83;;;6.97;;
54121;SDS011;40029;58.708;50.190;2022-12-18T14:09:57;18.83;;;7.95;;
54121;SDS011;40029;58.708;50.190;2022-12-18T14:12:31;21.98;;;7.05;;
54121;SDS011;40029;58.708;50.190;2022-12-18T14:20:33;15.13;;;6.88;;
54121;SDS011;40029;58.708;50.190;2022-12-18T14:23:04;21.30;;;7.88;;
54121;SDS011;40029;58.708;50.190;2022-12-18T14:25:55;31.33;;;8.45;;
54121;SDS011;40029;58.708;50.190;2022-12-18T14:28:26;21.65;;;8.18;;
54121;SDS011;40029;58.708;50.190;2022-12-18T14:30:57;22.50;;;8.25;;
54121;SDS011;40029;58.708;50.190;2022-12-18T14:33:28;19.95;;;8.15;;
54121;SDS011;40029;58.708;50.190;2022-12-18T14:36:04;18.95;;;6.60;;
54121;SDS011;40029;58.708;50.190;2022-12-18T14:38:39;16.98;;;6.80;;
54121;SDS011;40029;58.708;50.190;2022-12-18T14:41:14;18.83;;;7.95;;
54121;SDS011;40029;58.708;50.190;2022-12-18T14:43:47;22.23;;;8.13;;
54121;SDS011;40029;58.708;50.190;2022-12-18T14:49:19;30.95;;;11.07;;
54121;SDS011;40029;58.708;50.190;2022-12-18T14:51:53;34.05;;;11.65;;
54121;SDS011;40029;58.708;50.190;2022-12-18T14:54:27;20.77;;;7.00;;
54121;SDS011;40029;58.708;50.190;2022-12-18T14:57:00;21.75;;;9.23;;
54121;SDS011;40029;58.708;50.190;2022-12-18T14:59:34;15.80;;;7.35;;
54121;SDS011;40029;58.708;50.190;2022-12-18T15:05:01;21.05;;;8.00;;
54121;SDS011;40029;58.708;50.190;2022-12-18T15:07:41;17.40;;;6.90;;
54121;SDS011;40029;58.708;50.190;2022-12-18T15:10:19;19.63;;;7.25;;
54121;SDS011;40029;58.708;50.190;2022-12-18T15:13:20;21.38;;;8.32;;
54121;SDS011;40029;58.708;50.190;2022-12-18T15:15:54;14.95;;;6.43;;
54121;SDS011;40029;58.708;50.190;2022-12-18T15:18:30;16.20;;;6.68;;
54121;SDS011;40029;58.708;50.190;2022-12-18T15:21:09;15.60;;;6.43;;
54121;SDS011;40029;58.708;50.190;2022-12-18T15:26:16;23.73;;;9.75;;
54121;SDS011;40029;58.708;50.190;2022-12-18T15:28:50;24.03;;;9.27;;
54121;SDS011;40029;58.708;50.190;2022-12-18T15:31:30;15.75;;;6.38;;
54121;SDS011;40029;58.708;50.190;2022-12-18T15:36:38;22.90;;;8.45;;
54121;SDS011;40029;58.708;50.190;2022-12-18T15:39:11;19.88;;;8.57;;
54121;SDS011;40029;58.708;50.190;2022-12-18T15:41:43;20.55;;;8.30;;
54121;SDS011;40029;58.708;50.190;2022-12-18T15:44:34;21.95;;;8.27;;
54121;SDS011;40029;58.708;50.190;2022-12-18T15:47:09;17.90;;;6.90;;
54121;SDS011;40029;58.708;50.190;2022-12-18T15:49:42;18.42;;;7.25;;
54121;SDS011;40029;58.708;50.190;2022-12-18T15:52:13;16.30;;;6.75;;
54121;SDS011;40029;58.708;50.190;2022-12-18T15:54:44;14.38;;;7.10;;
54121;SDS011;40029;58.708;50.190;2022-12-18T15:57:33;18.13;;;7.13;;
54121;SDS011;40029;58.708;50.190;2022-12-18T16:00:05;15.77;;;6.88;;
54121;SDS011;40029;58.708;50.190;2022-12-18T16:02:36;23.52;;;9.77;;
54121;SDS011;40029;58.708;50.190;2022-12-18T16:05:14;26.90;;;9.73;;
54121;SDS011;40029;58.708;50.190;2022-12-18T16:07:47;28.13;;;10.57;;
54121;SDS011;40029;58.708;50.190;2022-12-18T16:10:18;24.85;;;10.30;;
54121;SDS011;40029;58.708;50.190;2022-12-18T16:12:49;28.90;;;9.80;;
54121;SDS011;40029;58.708;50.190;2022-12-18T16:15:21;18.65;;;7.97;;
54121;SDS011;40029;58.708;50.190;2022-12-18T16:17:52;30.15;;;11.90;;
54121;SDS011;40029;58.708;50.190;2022-12-18T16:20:23;35.38;;;13.30;;
54121;SDS011;40029;58.708;50.190;2022-12-18T16:22:54;30.40;;;10.82;;
54121;SDS011;40029;58.708;50.190;2022-12-18T16:25:26;27.13;;;11.45;;
54121;SDS011;40029;58.708;50.190;2022-12-18T16:27:58;36.10;;;13.13;;
54121;SDS011;40029;58.708;50.190;2022-12-18T16:30:30;21.05;;;8.23;;
54121;SDS011;40029;58.708;50.190;2022-12-18T16:33:02;25.70;;;9.55;;
54121;SDS011;40029;58.708;50.190;2022-12-18T16:35:33;22.17;;;7.93;;
54121;SDS011;40029;58.708;50.190;2022-12-18T16:38:04;19.13;;;7.07;;
54121;SDS011;40029;58.708;50.190;2022-12-18T16:40:35;23.42;;;8.50;;
54121;SDS011;40029;58.708;50.190;2022-12-18T16:43:28;18.48;;;7.68;;
54121;SDS011;40029;58.708;50.190;2022-12-18T16:45:59;25.10;;;9.73;;
54121;SDS011;40029;58.708;50.190;2022-12-18T16:48:31;28.77;;;10.32;;
54121;SDS011;40029;58.708;50.190;2022-12-18T16:51:05;28.73;;;9.98;;
54121;SDS011;40029;58.708;50.190;2022-12-18T16:53:36;29.80;;;10.80;;
54121;SDS011;40029;58.708;50.190;2022-12-18T16:56:08;27.63;;;10.30;;
54121;SDS011;40029;58.708;50.190;2022-12-18T16:58:39;22.10;;;8.52;;
54121;SDS011;40029;58.708;50.190;2022-12-18T17:01:10;23.77;;;9.55;;
54121;SDS011;40029;58.708;50.190;2022-12-18T17:03:41;34.65;;;12.43;;
54121;SDS011;40029;58.708;50.190;2022-12-18T17:06:12;36.97;;;12.55;;
54121;SDS011;40029;58.708;50.190;2022-12-18T17:08:43;33.40;;;12.88;;
54121;SDS011;40029;58.708;50.190;2022-12-18T17:11:14;30.23;;;11.70;;
54121;SDS011;40029;58.708;50.190;2022-12-18T17:13:45;33.78;;;11.52;;
54121;SDS011;40029;58.708;50.190;2022-12-18T17:16:16;28.58;;;11.05;;
54121;SDS011;40029;58.708;50.190;2022-12-18T17:18:48;21.65;;;8.80;;
54121;SDS011;40029;58.708;50.190;2022-12-18T17:21:19;36.13;;;10.75;;
54121;SDS011;40029;58.708;50.190;2022-12-18T17:23:50;25.85;;;9.73;;
54121;SDS011;40029;58.708;50.190;2022-12-18T17:26:21;29.42;;;8.68;;
54121;SDS011;40029;58.708;50.190;2022-12-18T17:28:52;22.50;;;10.02;;
54121;SDS011;40029;58.708;50.190;2022-12-18T17:31:26;17.30;;;6.95;;
54121;SDS011;40029;58.708;50.190;2022-12-18T17:34:00;20.25;;;8.50;;
54121;SDS011;40029;58.708;50.190;2022-12-18T17:36:32;29.60;;;11.35;;
54121;SDS011;40029;58.708;50.190;2022-12-18T17:39:04;29.95;;;10.57;;
54121;SDS011;40029;58.708;50.190;2022-12-18T17:41:36;39.35;;;12.60;;
54121;SDS011;40029;58.708;50.190;2022-12-18T17:44:07;30.35;;;11.52;;
54121;SDS011;40029;58.708;50.190;2022-12-18T17:46:38;35.65;;;11.55;;
54121;SDS011;40029;58.708;50.190;2022-12-18T17:49:09;28.35;;;11.32;;
54121;SDS011;40029;58.708;50.190;2022-12-18T17:51:41;31.40;;;10.65;;
54121;SDS011;40029;58.708;50.190;2022-12-18T17:54:12;30.73;;;10.90;;
54121;SDS011;40029;58.708;50.190;2022-12-18T17:56:43;24.65;;;10.45;;
54121;SDS011;40029;58.708;50.190;2022-12-18T17:59:14;34.92;;;10.50;;
54121;SDS011;40029;58.708;50.190;2022-12-18T18:01:45;32.05;;;11.50;;
54121;SDS011;40029;58.708;50.190;2022-12-18T18:04:16;30.13;;;10.75;;
54121;SDS011;40029;58.708;50.190;2022-12-18T18:06:47;30.70;;;11.57;;
54121;SDS011;40029;58.708;50.190;2022-12-18T18:09:18;26.08;;;10.60;;
54121;SDS011;40029;58.708;50.190;2022-12-18T18:11:49;16.88;;;6.63;;
54121;SDS011;40029;58.708;50.190;2022-12-18T18:14:39;21.55;;;9.60;;
54121;SDS011;40029;58.708;50.190;2022-12-18T18:17:10;21.97;;;8.93;;
54121;SDS011;40029;58.708;50.190;2022-12-18T18:19:41;28.90;;;9.30;;
54121;SDS011;40029;58.708;50.190;2022-12-18T18:22:12;58.30;;;16.93;;
54121;SDS011;40029;58.708;50.190;2022-12-18T18:24:48;38.40;;;11.95;;
54121;SDS011;40029;58.708;50.190;2022-12-18T18:27:19;49.90;;;13.73;;
54121;SDS011;40029;58.708;50.190;2022-12-18T18:29:50;63.75;;;16.23;;
54121;SDS011;40029;58.708;50.190;2022-12-18T18:32:21;48.85;;;13.05;;
54121;SDS011;40029;58.708;50.190;2022-12-18T18:34:52;51.85;;;12.45;;
54121;SDS011;40029;58.708;50.190;2022-12-18T18:37:23;42.17;;;10.63;;
54121;SDS011;40029;58.708;50.190;2022-12-18T18:39:54;50.83;;;14.10;;
54121;SDS011;40029;58.708;50.190;2022-12-18T18:42:26;33.97;;;11.02;;
54121;SDS011;40029;58.708;50.190;2022-12-18T18:44:57;63.58;;;18.90;;
54121;SDS011;40029;58.708;50.190;2022-12-18T18:47:28;55.35;;;14.88;;
54121;SDS011;40029;58.708;50.190;2022-12-18T18:50:00;53.50;;;15.05;;
54121;SDS011;40029;58.708;50.190;2022-12-18T18:52:31;35.05;;;12.02;;
54121;SDS011;40029;58.708;50.190;2022-12-18T18:55:02;29.92;;;12.20;;
54121;SDS011;40029;58.708;50.190;2022-12-18T18:57:33;29.80;;;10.20;;
54121;SDS011;40029;58.708;50.190;2022-12-18T19:00:04;25.48;;;9.10;;
54121;SDS011;40029;58.708;50.190;2022-12-18T19:02:36;27.73;;;8.77;;
54121;SDS011;40029;58.708;50.190;2022-12-18T19:05:07;20.17;;;7.25;;
54121;SDS011;40029;58.708;50.190;2022-12-18T19:07:38;20.02;;;7.03;;
54121;SDS011;40029;58.708;50.190;2022-12-18T19:10:09;15.43;;;6.85;;
54121;SDS011;40029;58.708;50.190;2022-12-18T19:12:40;17.55;;;6.80;;
54121;SDS011;40029;58.708;50.190;2022-12-18T19:15:29;12.70;;;5.18;;
54121;SDS011;40029;58.708;50.190;2022-12-18T19:18:00;18.88;;;7.03;;
54121;SDS011;40029;58.708;50.190;2022-12-18T19:20:31;17.25;;;6.85;;
54121;SDS011;40029;58.708;50.190;2022-12-18T19:23:02;23.33;;;9.07;;
54121;SDS011;40029;58.708;50.190;2022-12-18T19:25:37;21.73;;;7.65;;
54121;SDS011;40029;58.708;50.190;2022-12-18T19:28:09;19.85;;;7.20;;
54121;SDS011;40029;58.708;50.190;2022-12-18T19:30:40;11.85;;;5.28;;
54121;SDS011;40029;58.708;50.190;2022-12-18T19:33:11;28.67;;;9.80;;
54121;SDS011;40029;58.708;50.190;2022-12-18T19:35:42;32.67;;;8.32;;
54121;SDS011;40029;58.708;50.190;2022-12-18T19:38:14;33.42;;;11.30;;
54121;SDS011;40029;58.708;50.190;2022-12-18T19:40:45;26.33;;;8.48;;
54121;SDS011;40029;58.708;50.190;2022-12-18T19:43:16;26.83;;;8.15;;
54121;SDS011;40029;58.708;50.190;2022-12-18T19:45:52;21.25;;;7.40;;
54121;SDS011;40029;58.708;50.190;2022-12-18T19:48:24;22.30;;;6.85;;
54121;SDS011;40029;58.708;50.190;2022-12-18T19:50:55;19.65;;;7.10;;
54121;SDS011;40029;58.708;50.190;2022-12-18T19:53:26;20.70;;;6.53;;
54121;SDS011;40029;58.708;50.190;2022-12-18T19:55:57;22.10;;;7.72;;
54121;SDS011;40029;58.708;50.190;2022-12-18T19:58:28;42.15;;;11.15;;
54121;SDS011;40029;58.708;50.190;2022-12-18T20:00:59;21.25;;;8.52;;
54121;SDS011;40029;58.708;50.190;2022-12-18T20:03:31;10.40;;;5.32;;
54121;SDS011;40029;58.708;50.190;2022-12-18T20:09:00;8.55;;;4.05;;
54121;SDS011;40029;58.708;50.190;2022-12-18T20:11:34;16.17;;;6.75;;
54121;SDS011;40029;58.708;50.190;2022-12-18T20:14:05;16.45;;;6.90;;
54121;SDS011;40029;58.708;50.190;2022-12-18T20:16:36;25.00;;;7.55;;
54121;SDS011;40029;58.708;50.190;2022-12-18T20:19:08;23.35;;;7.50;;
54121;SDS011;40029;58.708;50.190;2022-12-18T20:21:40;33.88;;;10.90;;
54121;SDS011;40029;58.708;50.190;2022-12-18T20:24:11;27.25;;;8.10;;
54121;SDS011;40029;58.708;50.190;2022-12-18T20:26:42;19.58;;;5.72;;
54121;SDS011;40029;58.708;50.190;2022-12-18T20:29:13;28.30;;;10.30;;
54121;SDS011;40029;58.708;50.190;2022-12-18T20:31:44;42.38;;;12.18;;
54121;SDS011;40029;58.708;50.190;2022-12-18T20:34:15;40.47;;;12.27;;
54121;SDS011;40029;58.708;50.190;2022-12-18T20:36:46;17.25;;;6.78;;
54121;SDS011;40029;58.708;50.190;2022-12-18T20:39:17;39.17;;;12.48;;
54121;SDS011;40029;58.708;50.190;2022-12-18T20:41:48;23.40;;;7.30;;
54121;SDS011;40029;58.708;50.190;2022-12-18T20:44:20;13.52;;;4.95;;
54121;SDS011;40029;58.708;50.190;2022-12-18T20:46:53;17.40;;;7.25;;
54121;SDS011;40029;58.708;50.190;2022-12-18T20:49:26;19.08;;;6.32;;
54121;SDS011;40029;58.708;50.190;2022-12-18T20:51:57;20.05;;;6.00;;
54121;SDS011;40029;58.708;50.190;2022-12-18T20:54:28;18.27;;;5.73;;
54121;SDS011;40029;58.708;50.190;2022-12-18T20:56:59;12.30;;;4.10;;
54121;SDS011;40029;58.708;50.190;2022-12-18T20:59:30;15.65;;;5.25;;
54121;SDS011;40029;58.708;50.190;2022-12-18T21:02:01;10.35;;;4.88;;
54121;SDS011;40029;58.708;50.190;2022-12-18T21:04:32;15.63;;;4.72;;
54121;SDS011;40029;58.708;50.190;2022-12-18T21:07:03;9.02;;;4.28;;
54121;SDS011;40029;58.708;50.190;2022-12-18T21:09:34;9.55;;;3.70;;
54121;SDS011;40029;58.708;50.190;2022-12-18T21:12:07;8.70;;;3.22;;
54121;SDS011;40029;58.708;50.190;2022-12-18T21:15:01;8.77;;;3.35;;
54121;SDS011;40029;58.708;50.190;2022-12-18T21:17:36;4.15;;;2.45;;
54121;SDS011;40029;58.708;50.190;2022-12-18T21:20:07;12.55;;;5.10;;
54121;SDS011;40029;58.708;50.190;2022-12-18T21:22:39;28.23;;;9.15;;
54121;SDS011;40029;58.708;50.190;2022-12-18T21:25:10;13.35;;;5.93;;
54121;SDS011;40029;58.708;50.190;2022-12-18T21:27:41;8.00;;;3.75;;
54121;SDS011;40029;58.708;50.190;2022-12-18T21:30:12;10.10;;;4.43;;
54121;SDS011;40029;58.708;50.190;2022-12-18T21:32:44;11.53;;;4.13;;
54121;SDS011;40029;58.708;50.190;2022-12-18T21:35:15;14.43;;;5.32;;
54121;SDS011;40029;58.708;50.190;2022-12-18T21:37:46;12.43;;;6.07;;
54121;SDS011;40029;58.708;50.190;2022-12-18T21:40:17;16.33;;;4.10;;
54121;SDS011;40029;58.708;50.190;2022-12-18T21:42:48;15.68;;;5.65;;
54121;SDS011;40029;58.708;50.190;2022-12-18T21:45:37;11.53;;;5.30;;
54121;SDS011;40029;58.708;50.190;2022-12-18T21:48:08;12.63;;;5.07;;
54121;SDS011;40029;58.708;50.190;2022-12-18T21:50:39;11.48;;;5.55;;
54121;SDS011;40029;58.708;50.190;2022-12-18T21:53:10;10.30;;;4.88;;
54121;SDS011;40029;58.708;50.190;2022-12-18T21:55:41;11.53;;;5.10;;
54121;SDS011;40029;58.708;50.190;2022-12-18T21:58:12;11.80;;;5.13;;
54121;SDS011;40029;58.708;50.190;2022-12-18T22:00:43;12.60;;;5.82;;
54121;SDS011;40029;58.708;50.190;2022-12-18T22:03:14;12.10;;;4.97;;
54121;SDS011;40029;58.708;50.190;2022-12-18T22:05:45;6.65;;;2.80;;
54121;SDS011;40029;58.708;50.190;2022-12-18T22:08:16;17.37;;;5.83;;
54121;SDS011;40029;58.708;50.190;2022-12-18T22:10:47;26.93;;;8.60;;
54121;SDS011;40029;58.708;50.190;2022-12-18T22:13:18;26.90;;;7.43;;
54121;SDS011;40029;58.708;50.190;2022-12-18T22:15:49;7.90;;;3.90;;
54121;SDS011;40029;58.708;50.190;2022-12-18T22:18:20;10.13;;;3.43;;
54121;SDS011;40029;58.708;50.190;2022-12-18T22:21:04;6.70;;;2.87;;
54121;SDS011;40029;58.708;50.190;2022-12-18T22:23:36;4.22;;;2.35;;
54121;SDS011;40029;58.708;50.190;2022-12-18T22:26:07;11.23;;;3.47;;
54121;SDS011;40029;58.708;50.190;2022-12-18T22:28:40;8.53;;;3.70;;
54121;SDS011;40029;58.708;50.190;2022-12-18T22:31:29;8.13;;;3.23;;
54121;SDS011;40029;58.708;50.190;2022-12-18T22:34:00;4.13;;;2.60;;
54121;SDS011;40029;58.708;50.190;2022-12-18T22:36:41;8.70;;;4.83;;
54121;SDS011;40029;58.708;50.190;2022-12-18T22:39:18;7.00;;;4.37;;
54121;SDS011;40029;58.708;50.190;2022-12-18T22:41:53;8.63;;;4.00;;
54121;SDS011;40029;58.708;50.190;2022-12-18T22:44:25;8.43;;;3.50;;
54121;SDS011;40029;58.708;50.190;2022-12-18T22:46:56;15.43;;;4.77;;
54121;SDS011;40029;58.708;50.190;2022-12-18T22:49:27;10.32;;;4.93;;
54121;SDS011;40029;58.708;50.190;2022-12-18T22:51:58;10.73;;;5.43;;
54121;SDS011;40029;58.708;50.190;2022-12-18T22:54:29;14.30;;;5.07;;
54121;SDS011;40029;58.708;50.190;2022-12-18T22:57:00;9.40;;;3.35;;
54121;SDS011;40029;58.708;50.190;2022-12-18T22:59:31;6.80;;;3.07;;
54121;SDS011;40029;58.708;50.190;2022-12-18T23:02:02;7.63;;;3.23;;
54121;SDS011;40029;58.708;50.190;2022-12-18T23:04:33;5.45;;;3.05;;
54121;SDS011;40029;58.708;50.190;2022-12-18T23:07:06;7.32;;;3.00;;
54121;SDS011;40029;58.708;50.190;2022-12-18T23:09:37;10.77;;;6.17;;
54121;SDS011;40029;58.708;50.190;2022-12-18T23:12:14;5.72;;;3.35;;
54121;SDS011;40029;58.708;50.190;2022-12-18T23:14:48;7.30;;;4.07;;
54121;SDS011;40029;58.708;50.190;2022-12-18T23:17:19;7.30;;;4.70;;
54121;SDS011;40029;58.708;50.190;2022-12-18T23:19:50;8.53;;;2.43;;
54121;SDS011;40029;58.708;50.190;2022-12-18T23:22:21;9.63;;;3.17;;
54121;SDS011;40029;58.708;50.190;2022-12-18T23:24:52;4.85;;;3.10;;
54121;SDS011;40029;58.708;50.190;2022-12-18T23:27:23;5.03;;;2.07;;
54121;SDS011;40029;58.708;50.190;2022-12-18T23:29:54;9.20;;;3.17;;
54121;SDS011;40029;58.708;50.190;2022-12-18T23:32:25;9.27;;;2.87;;
54121;SDS011;40029;58.708;50.190;2022-12-18T23:34:56;20.85;;;4.28;;